createdAt,value
2022-08-24T00:01:31.731Z,1018.119
2022-08-24T00:06:32.645Z,1018.082
2022-08-24T00:11:31.765Z,1018.02
2022-08-24T00:16:32.230Z,1017.904
2022-08-24T00:21:32.112Z,1017.919
2022-08-24T00:26:31.881Z,1018.009
2022-08-24T00:31:31.867Z,1018.012
2022-08-24T00:36:31.769Z,1018.053
2022-08-24T00:41:32.051Z,1018.062
2022-08-24T00:46:34.883Z,1018.001
2022-08-24T00:51:34.239Z,1017.968
2022-08-24T00:56:34.179Z,1017.998
2022-08-24T01:01:32.612Z,1017.963
2022-08-24T01:06:31.998Z,1017.965
2022-08-24T01:11:33.321Z,1017.95
2022-08-24T01:16:43.402Z,1017.879
2022-08-24T01:21:34.744Z,1017.898
2022-08-24T01:26:35.147Z,1017.9
2022-08-24T01:31:31.901Z,1017.853
2022-08-24T01:36:34.295Z,1017.882
2022-08-24T01:41:31.961Z,1017.968
2022-08-24T01:46:31.695Z,1018.07
2022-08-24T01:51:33.725Z,1018.105
2022-08-24T01:56:32.986Z,1018.05
2022-08-24T02:01:32.891Z,1018.045
2022-08-24T02:06:32.083Z,1018.095
2022-08-24T02:11:32.244Z,1018.104
2022-08-24T02:16:31.654Z,1018.148
2022-08-24T02:21:31.982Z,1018.104
2022-08-24T02:26:31.769Z,1018.105
2022-08-24T02:31:32.766Z,1018.131
2022-08-24T02:36:31.690Z,1018.107
2022-08-24T02:41:32.154Z,1018.117
2022-08-24T02:46:32.975Z,1018.146
2022-08-24T02:51:43.946Z,1018.117
2022-08-24T02:56:32.735Z,1018.173
2022-08-24T03:01:32.128Z,1018.178
2022-08-24T03:06:31.629Z,1018.191
2022-08-24T03:11:31.859Z,1018.169
2022-08-24T03:16:32.210Z,1018.1
2022-08-24T03:21:32.899Z,1018.101
2022-08-24T03:26:31.804Z,1018.082
2022-08-24T03:31:31.676Z,1018.094
2022-08-24T03:36:31.781Z,1018.091
2022-08-24T03:41:33.848Z,1018.151
2022-08-24T03:46:32.687Z,1018.151
2022-08-24T03:51:32.053Z,1018.154
2022-08-24T03:56:32.257Z,1018.245
2022-08-24T04:01:31.777Z,1018.223
2022-08-24T04:06:47.365Z,1018.277
2022-08-24T04:11:37.439Z,1018.332
2022-08-24T04:16:34.963Z,1018.31
2022-08-24T04:21:35.474Z,1018.366
2022-08-24T04:26:45.422Z,1018.39
2022-08-24T04:31:36.475Z,1018.383
2022-08-24T04:36:36.984Z,1018.365
2022-08-24T04:41:31.938Z,1018.428
2022-08-24T04:46:32.234Z,1018.488
2022-08-24T04:51:36.299Z,1018.569
2022-08-24T04:56:36.164Z,1018.557
2022-08-24T05:01:34.790Z,1018.571
2022-08-24T05:06:33.633Z,1018.591
2022-08-24T05:11:34.509Z,1018.593
2022-08-24T05:16:34.513Z,1018.57
2022-08-24T05:21:32.050Z,1018.595
2022-08-24T05:26:31.935Z,1018.584
2022-08-24T05:31:36.213Z,1018.64
2022-08-24T05:36:32.563Z,1018.65
2022-08-24T05:41:34.512Z,1018.678
2022-08-24T05:46:32.202Z,1018.66
2022-08-24T05:51:35.747Z,1018.663
2022-08-24T05:56:33.394Z,1018.655
2022-08-24T06:06:34.757Z,1018.697
2022-08-24T06:11:32.893Z,1018.632
2022-08-24T06:16:37.488Z,1018.626
2022-08-24T06:21:32.303Z,1018.694
2022-08-24T06:26:43.315Z,1018.749
2022-08-24T06:31:39.371Z,1018.725
2022-08-24T06:36:35.151Z,1018.768
2022-08-24T06:41:37.792Z,1018.768
2022-08-24T06:46:34.397Z,1018.827
2022-08-24T06:51:39.792Z,1018.755
2022-08-24T06:56:32.548Z,1018.729
2022-08-24T07:01:31.504Z,1018.767
2022-08-24T07:06:35.247Z,1018.765
2022-08-24T07:11:35.725Z,1018.755
2022-08-24T07:16:35.850Z,1018.764
2022-08-24T07:21:34.219Z,1018.773
2022-08-24T07:26:32.999Z,1018.843
2022-08-24T07:31:35.230Z,1018.817
2022-08-24T07:36:31.612Z,1018.874
2022-08-24T07:41:43.631Z,1018.891
2022-08-24T07:46:37.394Z,1018.967
2022-08-24T07:56:34.583Z,1019.055
2022-08-24T08:01:40.002Z,1018.993
2022-08-24T08:06:31.681Z,1019.023
2022-08-24T08:11:34.374Z,1019.064
2022-08-24T08:16:34.222Z,1019.133
2022-08-24T08:21:43.435Z,1019.144
2022-08-24T08:26:33.074Z,1019.223
2022-08-24T08:31:34.727Z,1019.283
2022-08-24T08:36:33.796Z,1019.252
2022-08-24T08:41:44.079Z,1019.242
2022-08-24T08:46:52.602Z,1019.272
2022-08-24T08:51:43.514Z,1019.304
2022-08-24T08:56:38.886Z,1019.333
2022-08-24T09:01:35.560Z,1019.368
2022-08-24T09:06:52.227Z,1019.393
2022-08-24T09:11:35.524Z,1019.403
2022-08-24T09:16:43.266Z,1019.393
2022-08-24T09:22:04.251Z,1019.421
2022-08-24T09:26:33.667Z,1019.361
2022-08-24T09:31:46.002Z,1019.396
2022-08-24T09:36:45.702Z,1019.372
2022-08-24T09:41:45.194Z,1019.433
2022-08-24T09:46:45.769Z,1019.443
2022-08-24T09:51:51.966Z,1019.413
2022-08-24T09:56:37.843Z,1019.417
2022-08-24T10:01:41.111Z,1019.399
2022-08-24T10:06:37.782Z,1019.366
2022-08-24T10:11:38.639Z,1019.267
2022-08-24T10:16:40.361Z,1019.301
2022-08-24T10:21:43.693Z,1019.278
2022-08-24T10:26:51.650Z,1019.231
2022-08-24T10:31:49.656Z,1019.27
2022-08-24T10:36:53.804Z,1019.281
2022-08-24T10:41:52.935Z,1019.22
2022-08-24T10:46:58.780Z,1019.244
2022-08-24T10:51:39.853Z,1019.151
2022-08-24T10:56:41.424Z,1019.138
2022-08-24T11:01:38.164Z,1019.115
2022-08-24T11:06:35.403Z,1019.035
2022-08-24T11:11:41.045Z,1019.084
2022-08-24T11:16:38.817Z,1019.032
2022-08-24T11:21:47.174Z,1019.087
2022-08-24T11:26:34.701Z,1019.115
2022-08-24T11:31:37.030Z,1019.117
2022-08-24T11:36:43.301Z,1019.093
2022-08-24T11:41:48.528Z,1019.088
2022-08-24T11:46:40.933Z,1019.085
2022-08-24T11:51:45.880Z,1019.009
2022-08-24T11:56:37.797Z,1018.969
2022-08-24T12:01:42.776Z,1018.965
2022-08-24T12:06:41.419Z,1019
2022-08-24T12:09:50.809Z,1018.953
2022-08-24T12:19:24.936Z,1019.035
2022-08-24T12:24:33.067Z,1019.033
2022-08-24T12:29:28.584Z,1019.05
2022-08-24T12:34:39.386Z,1019.108
2022-08-24T12:39:23.597Z,1019.101
2022-08-24T12:44:25.507Z,1019.148
2022-08-24T12:49:29.403Z,1019.148
2022-08-24T12:54:33.153Z,1019.125
2022-08-24T12:59:26.036Z,1019.158
2022-08-24T13:04:43.805Z,1019.139
2022-08-24T13:09:36.763Z,1019.118
2022-08-24T13:14:35.433Z,1019.123
2022-08-24T13:19:35.036Z,1019.139
2022-08-24T13:24:43.351Z,1019.108
2022-08-24T13:29:27.189Z,1019.084
2022-08-24T13:34:38.153Z,1019.106
2022-08-24T13:39:49.586Z,1019.146
2022-08-24T13:44:38.774Z,1019.158
2022-08-24T13:49:35.021Z,1019.168
2022-08-24T13:54:29.113Z,1019.226
2022-08-24T13:59:34.807Z,1019.136
2022-08-24T14:04:37.829Z,1019.168
2022-08-24T14:09:45.942Z,1019.18
2022-08-24T14:14:36.748Z,1019.141
2022-08-24T14:19:35.164Z,1019.141
2022-08-24T14:24:28.889Z,1019.183
2022-08-24T14:29:39.077Z,1019.159
2022-08-24T14:34:35.019Z,1019.136
2022-08-24T14:39:40.525Z,1019.036
2022-08-24T14:44:31.534Z,1018.994
2022-08-24T14:49:29.411Z,1018.98
2022-08-24T14:54:31.373Z,1019.007
2022-08-24T14:59:27.907Z,1018.965
2022-08-24T15:04:38.119Z,1018.928
2022-08-24T15:09:29.348Z,1018.883
2022-08-24T15:14:43.101Z,1018.88
2022-08-24T15:19:28.876Z,1018.872
2022-08-24T15:24:36.799Z,1018.822
2022-08-24T15:29:26.043Z,1018.807
2022-08-24T15:34:21.816Z,1018.799
2022-08-24T15:39:33.126Z,1018.846
2022-08-24T15:44:29.621Z,1018.824
2022-08-24T15:49:26.947Z,1018.798
2022-08-24T15:54:33.641Z,1018.854
2022-08-24T15:59:31.408Z,1018.809
2022-08-24T16:04:31.687Z,1018.826
2022-08-24T16:09:35.019Z,1018.846
2022-08-24T16:14:35.349Z,1018.894
2022-08-24T16:19:31.063Z,1018.934
2022-08-24T16:24:30.731Z,1018.927
2022-08-24T16:29:32.950Z,1018.881
2022-08-24T16:34:26.459Z,1018.835
2022-08-24T16:39:22.034Z,1018.787
2022-08-24T16:44:26.198Z,1018.764
2022-08-24T16:49:22.186Z,1018.793
2022-08-24T16:54:21.624Z,1018.774
2022-08-24T16:59:24.099Z,1018.82
2022-08-24T17:04:21.749Z,1018.775
2022-08-24T17:09:21.880Z,1018.789
2022-08-24T17:14:21.950Z,1018.809
2022-08-24T17:19:22.889Z,1018.764
2022-08-24T17:24:23.409Z,1018.788
2022-08-24T17:29:22.082Z,1018.797
2022-08-24T17:34:22.297Z,1018.77
2022-08-24T17:39:23.720Z,1018.815
2022-08-24T17:44:24.775Z,1018.84
2022-08-24T17:49:25.537Z,1018.85
2022-08-24T17:54:21.882Z,1018.858
2022-08-24T17:59:26.654Z,1018.816
2022-08-24T18:04:22.069Z,1018.852
2022-08-24T18:09:24.160Z,1018.915
2022-08-24T18:14:24.448Z,1018.884
2022-08-24T18:19:22.930Z,1018.858
2022-08-24T18:24:21.756Z,1018.922
2022-08-24T18:29:22.612Z,1018.912
2022-08-24T18:34:25.630Z,1019.021
2022-08-24T18:39:24.997Z,1019.059
2022-08-24T18:44:22.804Z,1019.08
2022-08-24T18:49:22.230Z,1019.107
2022-08-24T18:54:23.342Z,1019.098
2022-08-24T18:59:22.211Z,1019.169
2022-08-24T19:04:22.796Z,1019.18
2022-08-24T19:09:21.944Z,1019.178
2022-08-24T19:14:21.670Z,1019.164
2022-08-24T19:19:21.943Z,1019.255
2022-08-24T19:24:22.367Z,1019.256
2022-08-24T19:29:45.023Z,1019.286
2022-08-24T19:34:21.821Z,1019.304
2022-08-24T19:39:23.570Z,1019.279
2022-08-24T19:44:34.333Z,1019.203
2022-08-24T19:49:22.132Z,1019.196
2022-08-24T19:54:22.487Z,1019.224
2022-08-24T19:59:31.581Z,1019.231
2022-08-24T20:04:21.622Z,1019.185
2022-08-24T20:09:23.531Z,1019.252
2022-08-24T20:14:22.010Z,1019.219
2022-08-24T20:19:22.179Z,1019.185
2022-08-24T20:24:21.877Z,1019.182
2022-08-24T20:29:22.043Z,1019.17
2022-08-24T20:34:21.837Z,1019.243
2022-08-24T20:39:24.122Z,1019.237
2022-08-24T20:44:22.057Z,1019.22
2022-08-24T20:49:22.584Z,1019.195
2022-08-24T20:54:23.074Z,1019.192
2022-08-24T20:59:21.886Z,1019.2
2022-08-24T21:04:21.635Z,1019.214
2022-08-24T21:09:21.701Z,1019.199
2022-08-24T21:14:22.185Z,1019.181
2022-08-24T21:19:21.719Z,1019.189
2022-08-24T21:24:21.824Z,1019.173
2022-08-24T21:29:22.023Z,1019.173
2022-08-24T21:34:32.917Z,1019.075
2022-08-24T21:39:21.575Z,1019.053
2022-08-24T21:44:21.701Z,1019.029
2022-08-24T21:49:21.751Z,1019.033
2022-08-24T21:54:22.159Z,1018.99
2022-08-24T21:59:21.903Z,1018.988
2022-08-24T22:04:21.754Z,1018.986
2022-08-24T22:09:22.413Z,1018.966
2022-08-24T22:14:21.886Z,1018.931
2022-08-24T22:19:21.576Z,1018.857
2022-08-24T22:24:21.701Z,1018.822
2022-08-24T22:29:21.918Z,1018.846
2022-08-24T22:34:21.559Z,1018.809
2022-08-24T22:39:22.074Z,1018.797
2022-08-24T22:44:25.114Z,1018.753
2022-08-24T22:49:22.169Z,1018.715
2022-08-24T22:54:22.658Z,1018.655
2022-08-24T22:59:23.015Z,1018.669
2022-08-24T23:04:23.111Z,1018.616
2022-08-24T23:09:21.995Z,1018.67
2022-08-24T23:14:21.954Z,1018.637
2022-08-24T23:19:33.524Z,1018.653
2022-08-24T23:24:21.785Z,1018.63
2022-08-24T23:29:32.559Z,1018.597
2022-08-24T23:34:22.170Z,1018.507
2022-08-24T23:39:22.132Z,1018.443
2022-08-24T23:44:23.089Z,1018.436
2022-08-24T23:49:22.391Z,1018.4
2022-08-24T23:54:21.957Z,1018.427
2022-08-24T23:59:22.888Z,1018.34
